sensor_id;sensor_type;location;lat;lon;timestamp;noise_LAeq;noise_LA_min;noise_LA_max;noise_LA01;noise_LA95
67304;Laerm;57660;51.436;5.978;2023-04-25T00:00:04;32.57;31.00;36.64;;
67304;Laerm;57660;51.436;5.978;2023-04-25T00:00:16;44.16;31.27;54.96;;
67304;Laerm;57660;51.436;5.978;2023-04-25T00:00:36;32.23;31.01;33.31;;
67304;Laerm;57660;51.436;5.978;2023-04-25T00:00:46;32.77;31.40;34.73;;
67304;Laerm;57660;51.436;5.978;2023-04-25T00:00:56;32.46;30.94;34.92;;
67304;Laerm;57660;51.436;5.978;2023-04-25T00:01:10;32.56;31.40;34.24;;
67304;Laerm;57660;51.436;5.978;2023-04-25T00:01:23;32.64;31.27;38.70;;
67304;Laerm;57660;51.436;5.978;2023-04-25T00:01:54;32.71;31.44;37.27;;
67304;Laerm;57660;51.436;5.978;2023-04-25T00:02:09;32.83;31.08;40.62;;
67304;Laerm;57660;51.436;5.978;2023-04-25T00:02:19;32.46;30.95;35.05;;
67304;Laerm;57660;51.436;5.978;2023-04-25T00:02:30;32.77;30.88;40.65;;
67304;Laerm;57660;51.436;5.978;2023-04-25T00:03:00;32.44;30.69;36.01;;
67304;Laerm;57660;51.436;5.978;2023-04-25T00:03:16;32.74;31.27;36.85;;
67304;Laerm;57660;51.436;5.978;2023-04-25T00:03:28;33.39;31.52;40.00;;
67304;Laerm;57660;51.436;5.978;2023-04-25T00:04:25;33.81;30.88;45.98;;
67304;Laerm;57660;51.436;5.978;2023-04-25T00:04:37;32.52;30.47;39.59;;
67304;Laerm;57660;51.436;5.978;2023-04-25T00:04:51;32.10;30.76;33.46;;
67304;Laerm;57660;51.436;5.978;2023-04-25T00:05:02;31.92;30.59;33.37;;
67304;Laerm;57660;51.436;5.978;2023-04-25T00:05:26;32.14;30.53;34.62;;
67304;Laerm;57660;51.436;5.978;2023-04-25T00:05:37;32.11;30.65;38.19;;
67304;Laerm;57660;51.436;5.978;2023-04-25T00:05:56;32.05;30.89;33.23;;
67304;Laerm;57660;51.436;5.978;2023-04-25T00:06:07;32.02;30.69;33.77;;
67304;Laerm;57660;51.436;5.978;2023-04-25T00:06:26;32.70;31.20;42.32;;
67304;Laerm;57660;51.436;5.978;2023-04-25T00:06:46;32.69;30.69;39.75;;
67304;Laerm;57660;51.436;5.978;2023-04-25T00:06:59;32.70;31.37;34.29;;
67304;Laerm;57660;51.436;5.978;2023-04-25T00:07:12;32.30;30.61;34.38;;
67304;Laerm;57660;51.436;5.978;2023-04-25T00:07:26;31.86;30.74;33.13;;
67304;Laerm;57660;51.436;5.978;2023-04-25T00:07:36;32.21;30.81;33.68;;
67304;Laerm;57660;51.436;5.978;2023-04-25T00:07:46;32.13;31.01;33.13;;
67304;Laerm;57660;51.436;5.978;2023-04-25T00:08:00;31.82;30.34;33.35;;
67304;Laerm;57660;51.436;5.978;2023-04-25T00:08:10;31.96;30.23;33.37;;
67304;Laerm;57660;51.436;5.978;2023-04-25T00:08:21;32.16;30.46;34.54;;
67304;Laerm;57660;51.436;5.978;2023-04-25T00:08:37;32.21;30.70;38.35;;
67304;Laerm;57660;51.436;5.978;2023-04-25T00:08:47;32.34;30.48;44.38;;
67304;Laerm;57660;51.436;5.978;2023-04-25T00:08:58;31.92;30.71;34.25;;
67304;Laerm;57660;51.436;5.978;2023-04-25T00:09:41;32.48;30.88;35.04;;
67304;Laerm;57660;51.436;5.978;2023-04-25T00:09:51;32.76;31.41;34.62;;
67304;Laerm;57660;51.436;5.978;2023-04-25T00:10:02;34.03;31.27;43.55;;
67304;Laerm;57660;51.436;5.978;2023-04-25T00:10:18;33.09;31.76;37.22;;
67304;Laerm;57660;51.436;5.978;2023-04-25T00:10:28;33.41;31.48;39.33;;
67304;Laerm;57660;51.436;5.978;2023-04-25T00:10:48;32.80;31.19;36.77;;
67304;Laerm;57660;51.436;5.978;2023-04-25T00:10:59;32.66;31.23;38.22;;
67304;Laerm;57660;51.436;5.978;2023-04-25T00:11:09;32.82;31.27;37.34;;
67304;Laerm;57660;51.436;5.978;2023-04-25T00:11:26;32.93;31.01;34.77;;
67304;Laerm;57660;51.436;5.978;2023-04-25T00:11:39;33.07;31.55;36.22;;
67304;Laerm;57660;51.436;5.978;2023-04-25T00:12:27;32.63;31.05;37.05;;
67304;Laerm;57660;51.436;5.978;2023-04-25T00:12:39;32.97;30.88;36.66;;
67304;Laerm;57660;51.436;5.978;2023-04-25T00:13:02;32.97;31.03;36.94;;
67304;Laerm;57660;51.436;5.978;2023-04-25T00:13:12;32.70;30.90;35.29;;
67304;Laerm;57660;51.436;5.978;2023-04-25T00:13:26;32.38;30.76;34.77;;
67304;Laerm;57660;51.436;5.978;2023-04-25T00:13:37;32.05;30.83;33.97;;
67304;Laerm;57660;51.436;5.978;2023-04-25T00:14:08;32.09;30.65;34.01;;
67304;Laerm;57660;51.436;5.978;2023-04-25T00:14:17;32.11;30.36;38.99;;
67304;Laerm;57660;51.436;5.978;2023-04-25T00:14:28;32.33;30.64;33.89;;
67304;Laerm;57660;51.436;5.978;2023-04-25T00:14:39;32.35;31.00;33.95;;
67304;Laerm;57660;51.436;5.978;2023-04-25T00:15:00;34.07;31.36;44.80;;
67304;Laerm;57660;51.436;5.978;2023-04-25T00:15:10;32.56;30.76;36.86;;
67304;Laerm;57660;51.436;5.978;2023-04-25T00:15:30;32.58;30.94;42.16;;
67304;Laerm;57660;51.436;5.978;2023-04-25T00:15:40;32.19;30.92;33.65;;
67304;Laerm;57660;51.436;5.978;2023-04-25T00:15:57;32.19;30.79;33.28;;
67304;Laerm;57660;51.436;5.978;2023-04-25T00:16:25;32.11;30.70;33.58;;
67304;Laerm;57660;51.436;5.978;2023-04-25T00:19:04;32.14;30.59;39.84;;
67304;Laerm;57660;51.436;5.978;2023-04-25T00:19:15;31.99;30.87;33.69;;
67304;Laerm;57660;51.436;5.978;2023-04-25T00:19:37;32.39;30.64;37.68;;
67304;Laerm;57660;51.436;5.978;2023-04-25T00:20:00;32.49;30.88;35.35;;
67304;Laerm;57660;51.436;5.978;2023-04-25T00:20:11;32.61;31.26;37.24;;
67304;Laerm;57660;51.436;5.978;2023-04-25T00:20:24;33.00;31.38;35.05;;
67304;Laerm;57660;51.436;5.978;2023-04-25T00:20:35;33.02;31.61;35.87;;
67304;Laerm;57660;51.436;5.978;2023-04-25T00:21:00;33.67;31.28;39.49;;
67304;Laerm;57660;51.436;5.978;2023-04-25T00:21:11;32.65;31.20;34.90;;
67304;Laerm;57660;51.436;5.978;2023-04-25T00:21:39;32.94;31.22;34.72;;
67304;Laerm;57660;51.436;5.978;2023-04-25T00:21:55;32.54;30.79;38.82;;
67304;Laerm;57660;51.436;5.978;2023-04-25T00:22:23;32.35;30.72;38.28;;
67304;Laerm;57660;51.436;5.978;2023-04-25T00:22:44;32.35;30.91;33.50;;
67304;Laerm;57660;51.436;5.978;2023-04-25T00:22:55;32.27;30.82;35.17;;
67304;Laerm;57660;51.436;5.978;2023-04-25T00:23:12;32.15;30.62;35.35;;
67304;Laerm;57660;51.436;5.978;2023-04-25T00:23:27;32.58;31.02;37.18;;
67304;Laerm;57660;51.436;5.978;2023-04-25T00:23:46;32.68;31.47;34.87;;
67304;Laerm;57660;51.436;5.978;2023-04-25T00:23:57;33.03;31.23;35.00;;
67304;Laerm;57660;51.436;5.978;2023-04-25T00:24:17;32.58;31.06;34.17;;
67304;Laerm;57660;51.436;5.978;2023-04-25T00:24:31;32.49;30.90;37.16;;
67304;Laerm;57660;51.436;5.978;2023-04-25T00:24:50;32.15;30.69;33.12;;
67304;Laerm;57660;51.436;5.978;2023-04-25T00:25:04;33.74;31.32;41.44;;
67304;Laerm;57660;51.436;5.978;2023-04-25T00:25:20;33.05;31.30;38.15;;
67304;Laerm;57660;51.436;5.978;2023-04-25T00:25:30;32.70;31.26;37.78;;
67304;Laerm;57660;51.436;5.978;2023-04-25T00:25:50;32.47;31.33;34.23;;
67304;Laerm;57660;51.436;5.978;2023-04-25T00:26:00;32.57;30.37;39.40;;
67304;Laerm;57660;51.436;5.978;2023-04-25T00:26:11;32.49;30.49;38.85;;
67304;Laerm;57660;51.436;5.978;2023-04-25T00:26:27;33.13;31.07;39.70;;
67304;Laerm;57660;51.436;5.978;2023-04-25T00:26:38;32.40;30.60;38.27;;
67304;Laerm;57660;51.436;5.978;2023-04-25T00:26:57;32.69;31.24;34.09;;
67304;Laerm;57660;51.436;5.978;2023-04-25T00:27:08;32.42;31.14;33.79;;
67304;Laerm;57660;51.436;5.978;2023-04-25T00:27:30;32.18;30.65;36.24;;
67304;Laerm;57660;51.436;5.978;2023-04-25T00:27:42;34.13;30.89;45.50;;
67304;Laerm;57660;51.436;5.978;2023-04-25T00:27:58;32.82;30.21;38.17;;
67304;Laerm;57660;51.436;5.978;2023-04-25T00:28:08;32.09;30.67;35.19;;
67304;Laerm;57660;51.436;5.978;2023-04-25T00:28:28;31.90;30.72;32.90;;
67304;Laerm;57660;51.436;5.978;2023-04-25T00:28:39;32.08;30.64;33.66;;
67304;Laerm;57660;51.436;5.978;2023-04-25T00:28:49;32.20;30.97;35.12;;
67304;Laerm;57660;51.436;5.978;2023-04-25T00:29:06;32.38;31.24;33.64;;
67304;Laerm;57660;51.436;5.978;2023-04-25T00:29:16;32.36;30.66;34.08;;
67304;Laerm;57660;51.436;5.978;2023-04-25T00:29:42;32.07;30.59;33.72;;
67304;Laerm;57660;51.436;5.978;2023-04-25T00:29:53;32.45;30.43;39.72;;
67304;Laerm;57660;51.436;5.978;2023-04-25T00:30:07;32.35;30.76;34.64;;
67304;Laerm;57660;51.436;5.978;2023-04-25T00:30:17;32.83;31.14;39.57;;
67304;Laerm;57660;51.436;5.978;2023-04-25T00:30:46;32.41;31.00;34.03;;
67304;Laerm;57660;51.436;5.978;2023-04-25T00:30:56;32.98;31.10;40.27;;
67304;Laerm;57660;51.436;5.978;2023-04-25T00:31:07;40.48;31.51;54.34;;
67304;Laerm;57660;51.436;5.978;2023-04-25T00:31:17;32.32;31.02;33.58;;
67304;Laerm;57660;51.436;5.978;2023-04-25T00:31:36;32.00;30.36;34.39;;
67304;Laerm;57660;51.436;5.978;2023-04-25T00:31:47;32.10;30.74;33.41;;
67304;Laerm;57660;51.436;5.978;2023-04-25T00:31:57;32.09;30.91;33.83;;
67304;Laerm;57660;51.436;5.978;2023-04-25T00:32:10;32.12;30.51;33.39;;
67304;Laerm;57660;51.436;5.978;2023-04-25T00:32:23;32.74;30.92;35.81;;
67304;Laerm;57660;51.436;5.978;2023-04-25T00:32:33;33.08;31.25;37.57;;
67304;Laerm;57660;51.436;5.978;2023-04-25T00:33:17;32.73;30.82;35.95;;
67304;Laerm;57660;51.436;5.978;2023-04-25T00:33:27;43.49;31.53;50.28;;
67304;Laerm;57660;51.436;5.978;2023-04-25T00:33:37;45.17;40.42;50.19;;
67304;Laerm;57660;51.436;5.978;2023-04-25T00:33:51;43.67;40.51;46.44;;
67304;Laerm;57660;51.436;5.978;2023-04-25T00:34:01;43.70;40.16;45.60;;
67304;Laerm;57660;51.436;5.978;2023-04-25T00:34:12;72.18;41.90;84.28;;
67304;Laerm;57660;51.436;5.978;2023-04-25T00:34:22;79.97;75.96;84.28;;
67304;Laerm;57660;51.436;5.978;2023-04-25T00:34:32;78.56;61.38;83.08;;
67304;Laerm;57660;51.436;5.978;2023-04-25T00:34:42;56.33;50.46;62.52;;
67304;Laerm;57660;51.436;5.978;2023-04-25T00:34:59;48.96;41.74;53.14;;
67304;Laerm;57660;51.436;5.978;2023-04-25T00:35:11;38.97;35.93;43.97;;
67304;Laerm;57660;51.436;5.978;2023-04-25T00:35:21;36.95;35.02;39.04;;
67304;Laerm;57660;51.436;5.978;2023-04-25T00:35:35;38.12;36.03;40.31;;
67304;Laerm;57660;51.436;5.978;2023-04-25T00:35:45;36.11;33.49;39.21;;
67304;Laerm;57660;51.436;5.978;2023-04-25T00:36:04;34.26;32.76;36.05;;
67304;Laerm;57660;51.436;5.978;2023-04-25T00:36:17;34.23;31.70;37.81;;
67304;Laerm;57660;51.436;5.978;2023-04-25T00:36:33;32.99;31.64;34.59;;
67304;Laerm;57660;51.436;5.978;2023-04-25T00:36:44;32.43;31.29;33.96;;
67304;Laerm;57660;51.436;5.978;2023-04-25T00:36:54;32.16;30.62;33.53;;
67304;Laerm;57660;51.436;5.978;2023-04-25T00:37:08;32.58;31.30;34.42;;
67304;Laerm;57660;51.436;5.978;2023-04-25T00:37:18;32.28;30.95;33.64;;
67304;Laerm;57660;51.436;5.978;2023-04-25T00:37:35;32.26;30.96;33.77;;
67304;Laerm;57660;51.436;5.978;2023-04-25T00:37:49;32.88;30.96;40.86;;
67304;Laerm;57660;51.436;5.978;2023-04-25T00:37:59;32.58;31.28;34.72;;
67304;Laerm;57660;51.436;5.978;2023-04-25T00:38:52;31.96;30.40;33.75;;
67304;Laerm;57660;51.436;5.978;2023-04-25T00:39:08;31.68;30.47;32.91;;
67304;Laerm;57660;51.436;5.978;2023-04-25T00:39:22;31.90;30.50;34.21;;
67304;Laerm;57660;51.436;5.978;2023-04-25T00:39:35;32.33;31.28;33.76;;
67304;Laerm;57660;51.436;5.978;2023-04-25T00:39:45;32.40;30.70;34.23;;
67304;Laerm;57660;51.436;5.978;2023-04-25T00:39:57;32.85;31.31;37.98;;
67304;Laerm;57660;51.436;5.978;2023-04-25T00:40:10;32.31;30.38;34.56;;
67304;Laerm;57660;51.436;5.978;2023-04-25T00:40:21;31.87;30.58;33.23;;
67304;Laerm;57660;51.436;5.978;2023-04-25T00:40:49;31.81;30.37;33.05;;
67304;Laerm;57660;51.436;5.978;2023-04-25T00:41:17;32.23;30.40;40.68;;
67304;Laerm;57660;51.436;5.978;2023-04-25T00:41:28;43.82;30.75;50.56;;
67304;Laerm;57660;51.436;5.978;2023-04-25T00:41:52;43.70;40.33;46.54;;
67304;Laerm;57660;51.436;5.978;2023-04-25T00:42:10;43.52;38.59;46.84;;
67304;Laerm;57660;51.436;5.978;2023-04-25T00:42:21;73.24;42.44;78.34;;
67304;Laerm;57660;51.436;5.978;2023-04-25T00:42:43;75.10;69.65;80.37;;
67304;Laerm;57660;51.436;5.978;2023-04-25T00:42:54;67.98;45.68;77.58;;
67304;Laerm;57660;51.436;5.978;2023-04-25T00:43:05;46.38;41.64;53.34;;
67304;Laerm;57660;51.436;5.978;2023-04-25T00:43:22;40.67;37.87;44.01;;
67304;Laerm;57660;51.436;5.978;2023-04-25T00:43:32;37.90;34.60;41.99;;
67304;Laerm;57660;51.436;5.978;2023-04-25T00:44:04;35.12;33.57;37.02;;
67304;Laerm;57660;51.436;5.978;2023-04-25T00:44:14;33.15;31.25;35.96;;
67304;Laerm;57660;51.436;5.978;2023-04-25T00:44:45;33.87;31.77;35.96;;
67304;Laerm;57660;51.436;5.978;2023-04-25T00:45:07;33.75;31.82;35.97;;
67304;Laerm;57660;51.436;5.978;2023-04-25T00:45:19;32.52;30.82;35.46;;
67304;Laerm;57660;51.436;5.978;2023-04-25T00:45:29;31.91;30.62;32.90;;
67304;Laerm;57660;51.436;5.978;2023-04-25T00:45:40;31.76;30.46;33.23;;
67304;Laerm;57660;51.436;5.978;2023-04-25T00:45:50;32.02;30.38;33.23;;
67304;Laerm;57660;51.436;5.978;2023-04-25T00:46:14;32.21;30.89;34.73;;
67304;Laerm;57660;51.436;5.978;2023-04-25T00:46:24;32.24;31.19;33.35;;
67304;Laerm;57660;51.436;5.978;2023-04-25T00:46:38;32.23;30.52;33.57;;
67304;Laerm;57660;51.436;5.978;2023-04-25T00:46:49;32.06;30.73;33.76;;
67304;Laerm;57660;51.436;5.978;2023-04-25T00:47:01;32.24;30.60;38.36;;
67304;Laerm;57660;51.436;5.978;2023-04-25T00:47:14;32.02;30.85;36.02;;
67304;Laerm;57660;51.436;5.978;2023-04-25T00:47:25;39.21;30.77;47.56;;
67304;Laerm;57660;51.436;5.978;2023-04-25T00:47:35;46.68;39.53;50.74;;
67304;Laerm;57660;51.436;5.978;2023-04-25T00:47:46;42.59;39.27;45.07;;
67304;Laerm;57660;51.436;5.978;2023-04-25T00:47:57;42.22;39.46;45.51;;
67304;Laerm;57660;51.436;5.978;2023-04-25T00:48:16;42.40;38.90;45.66;;
67304;Laerm;57660;51.436;5.978;2023-04-25T00:48:29;74.83;39.08;83.11;;
67304;Laerm;57660;51.436;5.978;2023-04-25T00:48:45;78.74;74.81;83.21;;
67304;Laerm;57660;51.436;5.978;2023-04-25T00:48:56;75.46;53.42;83.01;;
67304;Laerm;57660;51.436;5.978;2023-04-25T00:49:06;50.68;46.13;56.10;;
67304;Laerm;57660;51.436;5.978;2023-04-25T00:49:29;45.41;41.89;51.76;;
67304;Laerm;57660;51.436;5.978;2023-04-25T00:49:46;41.56;38.47;44.66;;
67304;Laerm;57660;51.436;5.978;2023-04-25T00:49:58;40.47;36.44;43.03;;
67304;Laerm;57660;51.436;5.978;2023-04-25T00:50:18;35.93;33.10;39.53;;
67304;Laerm;57660;51.436;5.978;2023-04-25T00:50:28;34.60;32.86;36.19;;
67304;Laerm;57660;51.436;5.978;2023-04-25T00:51:19;33.99;31.72;37.70;;
67304;Laerm;57660;51.436;5.978;2023-04-25T00:51:30;33.32;31.15;35.77;;
67304;Laerm;57660;51.436;5.978;2023-04-25T00:51:46;32.52;31.01;35.96;;
67304;Laerm;57660;51.436;5.978;2023-04-25T00:51:56;32.81;30.87;36.33;;
67304;Laerm;57660;51.436;5.978;2023-04-25T00:52:22;32.79;31.40;34.39;;
67304;Laerm;57660;51.436;5.978;2023-04-25T00:52:32;32.31;30.80;33.90;;
67304;Laerm;57660;51.436;5.978;2023-04-25T00:52:43;32.40;31.26;33.60;;
67304;Laerm;57660;51.436;5.978;2023-04-25T00:53:06;32.43;31.15;33.81;;
67304;Laerm;57660;51.436;5.978;2023-04-25T00:53:16;32.75;31.46;34.09;;
67304;Laerm;57660;51.436;5.978;2023-04-25T00:53:27;32.95;31.44;35.39;;
67304;Laerm;57660;51.436;5.978;2023-04-25T00:53:38;33.47;31.43;36.26;;
67304;Laerm;57660;51.436;5.978;2023-04-25T00:53:57;32.68;30.95;37.15;;
67304;Laerm;57660;51.436;5.978;2023-04-25T00:54:10;33.88;30.92;43.53;;
67304;Laerm;57660;51.436;5.978;2023-04-25T00:54:27;32.86;31.23;36.14;;
67304;Laerm;57660;51.436;5.978;2023-04-25T00:54:38;32.85;31.14;35.95;;
67304;Laerm;57660;51.436;5.978;2023-04-25T00:54:48;33.57;31.43;37.53;;
67304;Laerm;57660;51.436;5.978;2023-04-25T00:55:02;32.44;30.72;35.95;;
67304;Laerm;57660;51.436;5.978;2023-04-25T00:55:12;32.46;30.38;42.75;;
67304;Laerm;57660;51.436;5.978;2023-04-25T00:55:22;32.59;30.91;36.14;;
67304;Laerm;57660;51.436;5.978;2023-04-25T00:55:36;32.58;31.27;34.11;;
67304;Laerm;57660;51.436;5.978;2023-04-25T00:55:47;32.39;30.93;34.13;;
67304;Laerm;57660;51.436;5.978;2023-04-25T00:55:57;32.00;30.92;33.15;;
67304;Laerm;57660;51.436;5.978;2023-04-25T00:56:15;32.62;30.90;35.16;;
67304;Laerm;57660;51.436;5.978;2023-04-25T00:56:25;46.34;32.29;57.32;;
67304;Laerm;57660;51.436;5.978;2023-04-25T00:56:38;35.20;31.59;40.85;;
67304;Laerm;57660;51.436;5.978;2023-04-25T00:56:49;33.22;31.45;35.76;;
67304;Laerm;57660;51.436;5.978;2023-04-25T00:57:08;31.94;30.72;33.46;;
67304;Laerm;57660;51.436;5.978;2023-04-25T00:57:19;33.47;30.84;45.63;;
67304;Laerm;57660;51.436;5.978;2023-04-25T00:57:35;45.84;39.36;49.57;;
67304;Laerm;57660;51.436;5.978;2023-04-25T00:57:45;43.47;38.93;48.14;;
67304;Laerm;57660;51.436;5.978;2023-04-25T00:57:57;42.77;37.63;47.42;;
67304;Laerm;57660;51.436;5.978;2023-04-25T00:58:10;44.24;38.18;47.32;;
67304;Laerm;57660;51.436;5.978;2023-04-25T00:58:20;75.65;42.56;83.61;;
67304;Laerm;57660;51.436;5.978;2023-04-25T00:58:40;77.54;69.13;82.47;;
67304;Laerm;57660;51.436;5.978;2023-04-25T00:58:52;56.53;42.30;70.84;;
67304;Laerm;57660;51.436;5.978;2023-04-25T00:59:03;40.21;36.98;47.59;;
67304;Laerm;57660;51.436;5.978;2023-04-25T00:59:16;39.04;36.97;41.59;;
67304;Laerm;57660;51.436;5.978;2023-04-25T00:59:28;37.73;35.39;40.88;;
67304;Laerm;57660;51.436;5.978;2023-04-25T00:59:39;36.13;33.46;39.32;;
67304;Laerm;57660;51.436;5.978;2023-04-25T01:00:04;34.26;32.04;36.84;;
67304;Laerm;57660;51.436;5.978;2023-04-25T01:00:25;45.32;31.96;57.01;;
67304;Laerm;57660;51.436;5.978;2023-04-25T01:00:35;32.81;31.08;37.55;;
67304;Laerm;57660;51.436;5.978;2023-04-25T01:00:52;33.02;31.71;35.21;;
67304;Laerm;57660;51.436;5.978;2023-04-25T01:01:02;32.93;31.07;35.93;;
67304;Laerm;57660;51.436;5.978;2023-04-25T01:01:13;32.44;31.03;34.01;;
67304;Laerm;57660;51.436;5.978;2023-04-25T01:01:37;32.44;30.80;34.69;;
67304;Laerm;57660;51.436;5.978;2023-04-25T01:01:57;32.41;31.02;33.81;;
67304;Laerm;57660;51.436;5.978;2023-04-25T01:02:08;32.69;31.15;35.53;;
67304;Laerm;57660;51.436;5.978;2023-04-25T01:02:28;32.59;31.27;33.98;;
67304;Laerm;57660;51.436;5.978;2023-04-25T01:02:38;33.42;31.26;43.00;;
67304;Laerm;57660;51.436;5.978;2023-04-25T01:02:55;34.96;30.99;46.02;;
67304;Laerm;57660;51.436;5.978;2023-04-25T01:03:07;33.14;31.52;37.56;;
67304;Laerm;57660;51.436;5.978;2023-04-25T01:03:23;33.15;31.41;34.95;;
67304;Laerm;57660;51.436;5.978;2023-04-25T01:03:33;33.46;32.01;37.80;;
67304;Laerm;57660;51.436;5.978;2023-04-25T01:03:52;33.51;31.80;36.00;;
67304;Laerm;57660;51.436;5.978;2023-04-25T01:04:03;32.53;30.78;35.15;;
67304;Laerm;57660;51.436;5.978;2023-04-25T01:04:13;32.15;30.79;33.18;;
67304;Laerm;57660;51.436;5.978;2023-04-25T01:04:39;32.25;30.82;36.53;;
67304;Laerm;57660;51.436;5.978;2023-04-25T01:04:59;32.26;31.01;33.44;;
67304;Laerm;57660;51.436;5.978;2023-04-25T01:05:09;32.33;31.02;33.73;;
67304;Laerm;57660;51.436;5.978;2023-04-25T01:05:25;32.40;31.22;36.06;;
67304;Laerm;57660;51.436;5.978;2023-04-25T01:05:36;32.49;31.06;33.55;;
67304;Laerm;57660;51.436;5.978;2023-04-25T01:05:55;32.37;31.11;33.55;;
67304;Laerm;57660;51.436;5.978;2023-04-25T01:06:07;32.32;30.83;35.22;;
67304;Laerm;57660;51.436;5.978;2023-04-25T01:06:24;32.45;31.02;34.16;;
67304;Laerm;57660;51.436;5.978;2023-04-25T01:06:34;31.89;30.62;33.30;;
67304;Laerm;57660;51.436;5.978;2023-04-25T01:06:45;31.78;30.74;33.03;;
67304;Laerm;57660;51.436;5.978;2023-04-25T01:07:01;32.00;30.89;33.47;;
67304;Laerm;57660;51.436;5.978;2023-04-25T01:07:12;32.28;31.04;33.42;;
67304;Laerm;57660;51.436;5.978;2023-04-25T01:07:29;32.61;31.29;33.88;;
67304;Laerm;57660;51.436;5.978;2023-04-25T01:07:40;32.50;30.96;33.61;;
67304;Laerm;57660;51.436;5.978;2023-04-25T01:07:51;32.42;31.21;33.40;;
67304;Laerm;57660;51.436;5.978;2023-04-25T01:08:04;32.68;31.76;33.70;;
67304;Laerm;57660;51.436;5.978;2023-04-25T01:08:14;33.72;31.29;44.42;;
67304;Laerm;57660;51.436;5.978;2023-04-25T01:08:25;46.66;40.24;50.95;;
67304;Laerm;57660;51.436;5.978;2023-04-25T01:08:36;46.44;40.52;50.83;;
67304;Laerm;57660;51.436;5.978;2023-04-25T01:08:47;42.87;40.30;45.37;;
67304;Laerm;57660;51.436;5.978;2023-04-25T01:09:06;43.29;39.74;46.47;;
67304;Laerm;57660;51.436;5.978;2023-04-25T01:09:17;70.00;38.83;79.18;;
67304;Laerm;57660;51.436;5.978;2023-04-25T01:09:50;75.70;59.88;79.20;;
67304;Laerm;57660;51.436;5.978;2023-04-25T01:10:09;49.40;36.53;61.32;;
67304;Laerm;57660;51.436;5.978;2023-04-25T01:10:19;36.78;32.67;39.01;;
67304;Laerm;57660;51.436;5.978;2023-04-25T01:10:42;36.36;33.30;39.57;;
67304;Laerm;57660;51.436;5.978;2023-04-25T01:10:52;34.92;31.82;39.55;;
67304;Laerm;57660;51.436;5.978;2023-04-25T01:11:02;34.24;32.29;36.69;;
67304;Laerm;57660;51.436;5.978;2023-04-25T01:11:25;33.32;31.89;38.69;;
67304;Laerm;57660;51.436;5.978;2023-04-25T01:12:03;32.82;30.47;38.40;;
67304;Laerm;57660;51.436;5.978;2023-04-25T01:12:25;34.48;32.17;37.64;;
67304;Laerm;57660;51.436;5.978;2023-04-25T01:12:35;33.24;31.23;40.50;;
67304;Laerm;57660;51.436;5.978;2023-04-25T01:12:46;33.63;31.78;35.85;;
67304;Laerm;57660;51.436;5.978;2023-04-25T01:13:04;32.59;30.98;34.56;;
67304;Laerm;57660;51.436;5.978;2023-04-25T01:13:14;32.30;30.79;34.09;;
67304;Laerm;57660;51.436;5.978;2023-04-25T01:13:33;32.16;31.09;33.28;;
67304;Laerm;57660;51.436;5.978;2023-04-25T01:13:44;32.68;31.05;34.10;;
67304;Laerm;57660;51.436;5.978;2023-04-25T01:14:07;33.76;31.63;35.56;;
67304;Laerm;57660;51.436;5.978;2023-04-25T01:14:17;33.64;31.90;35.21;;
67304;Laerm;57660;51.436;5.978;2023-04-25T01:14:42;33.81;32.04;35.71;;
67304;Laerm;57660;51.436;5.978;2023-04-25T01:14:53;34.04;32.36;35.90;;
67304;Laerm;57660;51.436;5.978;2023-04-25T01:15:13;34.35;32.30;37.29;;
67304;Laerm;57660;51.436;5.978;2023-04-25T01:15:23;34.01;32.22;42.34;;
67304;Laerm;57660;51.436;5.978;2023-04-25T01:15:39;33.36;32.02;34.40;;
67304;Laerm;57660;51.436;5.978;2023-04-25T01:15:50;34.22;32.43;36.06;;
67304;Laerm;57660;51.436;5.978;2023-04-25T01:16:06;35.82;33.61;37.98;;
67304;Laerm;57660;51.436;5.978;2023-04-25T01:16:19;45.41;34.63;50.05;;
67304;Laerm;57660;51.436;5.978;2023-04-25T01:16:38;45.22;41.00;47.49;;
67304;Laerm;57660;51.436;5.978;2023-04-25T01:16:48;63.67;41.29;76.31;;
67304;Laerm;57660;51.436;5.978;2023-04-25T01:16:59;72.98;68.89;78.20;;
67304;Laerm;57660;51.436;5.978;2023-04-25T01:17:22;68.13;35.65;74.62;;
67304;Laerm;57660;51.436;5.978;2023-04-25T01:17:36;34.37;31.75;37.19;;
67304;Laerm;57660;51.436;5.978;2023-04-25T01:17:46;32.71;31.53;35.46;;
67304;Laerm;57660;51.436;5.978;2023-04-25T01:18:11;42.48;31.00;48.84;;
67304;Laerm;57660;51.436;5.978;2023-04-25T01:18:22;44.95;39.09;51.16;;
67304;Laerm;57660;51.436;5.978;2023-04-25T01:18:39;41.74;39.16;44.12;;
67304;Laerm;57660;51.436;5.978;2023-04-25T01:18:50;66.67;40.49;79.43;;
67304;Laerm;57660;51.436;5.978;2023-04-25T01:19:10;76.36;73.39;78.93;;
67304;Laerm;57660;51.436;5.978;2023-04-25T01:19:23;72.03;46.12;78.88;;
67304;Laerm;57660;51.436;5.978;2023-04-25T01:19:33;45.58;41.15;48.57;;
67304;Laerm;57660;51.436;5.978;2023-04-25T01:19:44;42.39;40.32;44.76;;
67304;Laerm;57660;51.436;5.978;2023-04-25T01:20:05;41.00;38.11;43.72;;
67304;Laerm;57660;51.436;5.978;2023-04-25T01:20:19;38.60;34.07;41.76;;
67304;Laerm;57660;51.436;5.978;2023-04-25T01:20:36;34.20;32.78;35.52;;
67304;Laerm;57660;51.436;5.978;2023-04-25T01:20:53;33.47;31.90;36.25;;
67304;Laerm;57660;51.436;5.978;2023-04-25T01:21:12;32.65;30.84;34.08;;
67304;Laerm;57660;51.436;5.978;2023-04-25T01:21:23;32.70;31.09;36.62;;
67304;Laerm;57660;51.436;5.978;2023-04-25T01:21:39;33.27;30.55;41.17;;
67304;Laerm;57660;51.436;5.978;2023-04-25T01:21:52;32.39;30.78;34.87;;
67304;Laerm;57660;51.436;5.978;2023-04-25T01:22:08;32.38;31.00;33.50;;
67304;Laerm;57660;51.436;5.978;2023-04-25T01:22:20;32.16;30.85;33.41;;
67304;Laerm;57660;51.436;5.978;2023-04-25T01:22:46;32.11;30.30;35.05;;
67304;Laerm;57660;51.436;5.978;2023-04-25T01:22:56;31.70;30.38;32.98;;
67304;Laerm;57660;51.436;5.978;2023-04-25T01:23:16;31.63;30.47;32.72;;
67304;Laerm;57660;51.436;5.978;2023-04-25T01:23:29;31.97;30.42;34.40;;
67304;Laerm;57660;51.436;5.978;2023-04-25T01:23:40;32.17;30.97;33.38;;
67304;Laerm;57660;51.436;5.978;2023-04-25T01:23:55;32.48;31.19;33.64;;
67304;Laerm;57660;51.436;5.978;2023-04-25T01:24:05;32.31;30.59;33.49;;
67304;Laerm;57660;51.436;5.978;2023-04-25T01:24:28;32.13;30.84;33.24;;
67304;Laerm;57660;51.436;5.978;2023-04-25T01:24:38;31.89;30.80;33.04;;
67304;Laerm;57660;51.436;5.978;2023-04-25T01:24:57;32.13;30.76;33.82;;
67304;Laerm;57660;51.436;5.978;2023-04-25T01:25:10;34.56;31.32;39.89;;
67304;Laerm;57660;51.436;5.978;2023-04-25T01:25:30;34.16;31.93;37.52;;
67304;Laerm;57660;51.436;5.978;2023-04-25T01:25:41;34.32;31.52;39.03;;
67304;Laerm;57660;51.436;5.978;2023-04-25T01:25:55;33.98;31.48;38.51;;
67304;Laerm;57660;51.436;5.978;2023-04-25T01:26:09;33.50;31.16;37.18;;
67304;Laerm;57660;51.436;5.978;2023-04-25T01:26:20;35.08;31.60;40.63;;
67304;Laerm;57660;51.436;5.978;2023-04-25T01:26:37;33.21;30.85;37.79;;
67304;Laerm;57660;51.436;5.978;2023-04-25T01:26:50;33.48;31.06;41.46;;
67304;Laerm;57660;51.436;5.978;2023-04-25T01:27:06;33.50;31.29;39.43;;
67304;Laerm;57660;51.436;5.978;2023-04-25T01:27:19;32.93;31.23;35.64;;
67304;Laerm;57660;51.436;5.978;2023-04-25T01:27:36;33.53;31.90;36.95;;
67304;Laerm;57660;51.436;5.978;2023-04-25T01:27:50;35.67;31.76;40.05;;